LOT3509 EPSY-EPKK
Flight info
| Callsign | LOT3509 |
|---|---|
| Flight time | 0h 39m |
| Altitude | 32000 |
| Route | UDROV DCT KUKAM |
| Aircraft | B38M/M-SDE1FGHILORVWXY/HB1 |
Departure
| Time | 2026-04-25 10:32 |
|---|---|
| Airport | Olsztyn-Mazury Airport (EPSY) |
Arrival
| Time | 2026-04-25 11:12 |
|---|---|
| Airport | Kraków John Paul II International Airport (EPKK) |
| Time | Latitude | Longitude | Altitude | Speed | Heading |
|---|---|---|---|---|---|
| 2026-04-25 09:59 | 53.48777 | 20.94515 | 469 ft | 0 kts | 109° |
| 2026-04-25 10:23 | 53.48778 | 20.94507 | 468 ft | 2 kts | 110° |
| 2026-04-25 10:23 | 53.48784 | 20.94481 | 467 ft | 2 kts | 113° |
| 2026-04-25 10:24 | 53.48791 | 20.94456 | 469 ft | 2 kts | 119° |
| 2026-04-25 10:24 | 53.48800 | 20.94433 | 466 ft | 2 kts | 131° |
| 2026-04-25 10:24 | 53.48813 | 20.94416 | 469 ft | 2 kts | 166° |
| 2026-04-25 10:24 | 53.48827 | 20.94416 | 466 ft | 1 kts | 195° |
| 2026-04-25 10:25 | 53.48831 | 20.94418 | 469 ft | 0 kts | 197° |
| 2026-04-25 10:25 | 53.48830 | 20.94418 | 469 ft | 0 kts | 197° |
| 2026-04-25 10:25 | 53.48828 | 20.94416 | 466 ft | 0 kts | 197° |
| 2026-04-25 10:27 | 53.48824 | 20.94414 | 466 ft | 4 kts | 197° |
| 2026-04-25 10:27 | 53.48778 | 20.94366 | 469 ft | 12 kts | 246° |
| 2026-04-25 10:28 | 53.48775 | 20.94322 | 469 ft | 3 kts | 284° |
| 2026-04-25 10:28 | 53.48776 | 20.94318 | 469 ft | 0 kts | 284° |
| 2026-04-25 10:29 | 53.48779 | 20.94298 | 469 ft | 6 kts | 287° |
| 2026-04-25 10:29 | 53.48805 | 20.94182 | 470 ft | 15 kts | 292° |
| 2026-04-25 10:29 | 53.48885 | 20.94127 | 471 ft | 13 kts | 25° |
| 2026-04-25 10:30 | 53.48986 | 20.94220 | 472 ft | 22 kts | 20° |
| 2026-04-25 10:30 | 53.49148 | 20.94317 | 471 ft | 11 kts | 30° |
| 2026-04-25 10:30 | 53.49229 | 20.94369 | 469 ft | 2 kts | 342° |
| 2026-04-25 10:30 | 53.49231 | 20.94357 | 469 ft | 2 kts | 273° |
| 2026-04-25 10:31 | 53.49205 | 20.94330 | 467 ft | 9 kts | 196° |
| 2026-04-25 10:31 | 53.49117 | 20.94288 | 471 ft | 18 kts | 195° |
| 2026-04-25 10:31 | 53.48958 | 20.94196 | 471 ft | 42 kts | 202° |
| 2026-04-25 10:31 | 53.48425 | 20.93898 | 474 ft | 112 kts | 198° |
| 2026-04-25 10:32 | 53.47497 | 20.93392 | 504 ft | 150 kts | 202° |
| 2026-04-25 10:32 | 53.46535 | 20.92872 | 649 ft | 145 kts | 205° |
| 2026-04-25 10:32 | 53.45550 | 20.92290 | 943 ft | 154 kts | 201° |
| 2026-04-25 10:32 | 53.44541 | 20.91852 | 1844 ft | 148 kts | 202° |
| 2026-04-25 10:33 | 53.43512 | 20.91396 | 2469 ft | 160 kts | 203° |
| 2026-04-25 10:33 | 53.42377 | 20.90870 | 2954 ft | 179 kts | 201° |
| 2026-04-25 10:33 | 53.41104 | 20.90279 | 3371 ft | 201 kts | 201° |
| 2026-04-25 10:33 | 53.39684 | 20.89621 | 3733 ft | 223 kts | 201° |
| 2026-04-25 10:34 | 53.38135 | 20.88907 | 4221 ft | 234 kts | 201° |
| 2026-04-25 10:34 | 53.36583 | 20.88190 | 4913 ft | 239 kts | 202° |
| 2026-04-25 10:34 | 53.34938 | 20.87429 | 5556 ft | 244 kts | 202° |
| 2026-04-25 10:34 | 53.33284 | 20.86662 | 6206 ft | 251 kts | 202° |
| 2026-04-25 10:35 | 53.31621 | 20.85892 | 7053 ft | 252 kts | 202° |
| 2026-04-25 10:35 | 53.29880 | 20.85083 | 7628 ft | 268 kts | 202° |
| 2026-04-25 10:35 | 53.28033 | 20.84230 | 8235 ft | 280 kts | 202° |
| 2026-04-25 10:35 | 53.26140 | 20.83373 | 9089 ft | 285 kts | 200° |
| 2026-04-25 10:36 | 53.24169 | 20.82733 | 9871 ft | 292 kts | 198° |
| 2026-04-25 10:36 | 53.22136 | 20.82080 | 10367 ft | 308 kts | 198° |
| 2026-04-25 10:36 | 53.19980 | 20.81377 | 10779 ft | 323 kts | 198° |
| 2026-04-25 10:36 | 53.17733 | 20.80638 | 11333 ft | 335 kts | 198° |
| 2026-04-25 10:37 | 53.15420 | 20.79873 | 11972 ft | 342 kts | 198° |
| 2026-04-25 10:37 | 53.13071 | 20.79095 | 12789 ft | 346 kts | 199° |
| 2026-04-25 10:37 | 53.10700 | 20.78310 | 13602 ft | 350 kts | 199° |
| 2026-04-25 10:37 | 53.08293 | 20.77516 | 14341 ft | 354 kts | 198° |
| 2026-04-25 10:38 | 53.05865 | 20.76715 | 15073 ft | 359 kts | 198° |
| 2026-04-25 10:38 | 53.03398 | 20.75901 | 15828 ft | 363 kts | 198° |
| 2026-04-25 10:38 | 53.00906 | 20.75079 | 16595 ft | 367 kts | 198° |
| 2026-04-25 10:38 | 52.98398 | 20.74253 | 17302 ft | 372 kts | 198° |
| 2026-04-25 10:39 | 52.95841 | 20.73412 | 18031 ft | 376 kts | 197° |
| 2026-04-25 10:39 | 52.93260 | 20.72564 | 18645 ft | 380 kts | 197° |
| 2026-04-25 10:39 | 52.90657 | 20.71710 | 19232 ft | 384 kts | 197° |
| 2026-04-25 10:39 | 52.88027 | 20.70849 | 19847 ft | 387 kts | 197° |
| 2026-04-25 10:40 | 52.85373 | 20.69981 | 20458 ft | 390 kts | 197° |
| 2026-04-25 10:40 | 52.82700 | 20.69107 | 21066 ft | 394 kts | 197° |
| 2026-04-25 10:40 | 52.79995 | 20.68224 | 21658 ft | 397 kts | 197° |
| 2026-04-25 10:40 | 52.77272 | 20.67336 | 22240 ft | 401 kts | 196° |
| 2026-04-25 10:41 | 52.74524 | 20.66441 | 22806 ft | 405 kts | 196° |
| 2026-04-25 10:41 | 52.71767 | 20.65544 | 23403 ft | 408 kts | 196° |
| 2026-04-25 10:41 | 52.68971 | 20.64635 | 23874 ft | 411 kts | 196° |
| 2026-04-25 10:41 | 52.66158 | 20.63722 | 24346 ft | 413 kts | 197° |
| 2026-04-25 10:42 | 52.63330 | 20.62806 | 24842 ft | 415 kts | 197° |
| 2026-04-25 10:42 | 52.60481 | 20.61885 | 25298 ft | 418 kts | 197° |
| 2026-04-25 10:42 | 52.57622 | 20.60961 | 25755 ft | 421 kts | 197° |
| 2026-04-25 10:42 | 52.54736 | 20.60030 | 26206 ft | 423 kts | 197° |
| 2026-04-25 10:43 | 52.51841 | 20.59097 | 26658 ft | 426 kts | 197° |
| 2026-04-25 10:43 | 52.48936 | 20.58162 | 27097 ft | 429 kts | 197° |
| 2026-04-25 10:43 | 52.45996 | 20.57218 | 27526 ft | 431 kts | 197° |
| 2026-04-25 10:43 | 52.43082 | 20.56283 | 27930 ft | 434 kts | 197° |
| 2026-04-25 10:44 | 52.40113 | 20.55332 | 28333 ft | 436 kts | 197° |
| 2026-04-25 10:44 | 52.37130 | 20.54377 | 28737 ft | 439 kts | 196° |
| 2026-04-25 10:44 | 52.34118 | 20.53415 | 29154 ft | 441 kts | 196° |
| 2026-04-25 10:44 | 52.31095 | 20.52450 | 29540 ft | 444 kts | 196° |
| 2026-04-25 10:45 | 52.28056 | 20.51481 | 29923 ft | 447 kts | 196° |
| 2026-04-25 10:45 | 52.25012 | 20.50512 | 30248 ft | 449 kts | 197° |
| 2026-04-25 10:45 | 52.21938 | 20.49536 | 30578 ft | 451 kts | 197° |
| 2026-04-25 10:45 | 52.18849 | 20.48556 | 30870 ft | 453 kts | 196° |
| 2026-04-25 10:46 | 52.15748 | 20.47573 | 31174 ft | 455 kts | 196° |
| 2026-04-25 10:46 | 52.12635 | 20.46588 | 31573 ft | 455 kts | 196° |
| 2026-04-25 10:46 | 52.09519 | 20.45603 | 31840 ft | 457 kts | 196° |
| 2026-04-25 10:47 | 52.03312 | 20.43646 | 31862 ft | 453 kts | 196° |
| 2026-04-25 10:47 | 51.97144 | 20.41707 | 31853 ft | 453 kts | 196° |
| 2026-04-25 10:48 | 51.90958 | 20.39767 | 31825 ft | 451 kts | 195° |
| 2026-04-25 10:48 | 51.87908 | 20.38813 | 31398 ft | 444 kts | 195° |
| 2026-04-25 10:48 | 51.84887 | 20.37869 | 30819 ft | 442 kts | 195° |
| 2026-04-25 10:48 | 51.81874 | 20.36929 | 30248 ft | 440 kts | 195° |
| 2026-04-25 10:49 | 51.78875 | 20.35995 | 29685 ft | 437 kts | 195° |
| 2026-04-25 10:49 | 51.75915 | 20.35073 | 29126 ft | 434 kts | 195° |
| 2026-04-25 10:49 | 51.72964 | 20.34156 | 28616 ft | 429 kts | 195° |
| 2026-04-25 10:49 | 51.70046 | 20.33250 | 28111 ft | 425 kts | 195° |
| 2026-04-25 10:50 | 51.67160 | 20.32356 | 27619 ft | 421 kts | 195° |
| 2026-04-25 10:50 | 51.64292 | 20.31468 | 27121 ft | 418 kts | 196° |
| 2026-04-25 10:50 | 51.61447 | 20.30588 | 26629 ft | 415 kts | 196° |
| 2026-04-25 10:50 | 51.58625 | 20.29717 | 26146 ft | 412 kts | 196° |
| 2026-04-25 10:51 | 51.55822 | 20.28852 | 25680 ft | 409 kts | 196° |
| 2026-04-25 10:51 | 51.53036 | 20.27994 | 25215 ft | 406 kts | 196° |
| 2026-04-25 10:51 | 51.50277 | 20.27145 | 24748 ft | 404 kts | 196° |
| 2026-04-25 10:51 | 51.47521 | 20.26299 | 24274 ft | 402 kts | 196° |
| 2026-04-25 10:52 | 51.44778 | 20.25457 | 23826 ft | 400 kts | 196° |
| 2026-04-25 10:52 | 51.42056 | 20.24623 | 23386 ft | 398 kts | 197° |
| 2026-04-25 10:52 | 51.39346 | 20.23793 | 22872 ft | 396 kts | 197° |
| 2026-04-25 10:52 | 51.36688 | 20.22981 | 22428 ft | 392 kts | 197° |
| 2026-04-25 10:53 | 51.34019 | 20.22169 | 22010 ft | 389 kts | 195° |
| 2026-04-25 10:53 | 51.31324 | 20.21629 | 21476 ft | 391 kts | 192° |
| 2026-04-25 10:53 | 51.28630 | 20.21121 | 21013 ft | 389 kts | 192° |
| 2026-04-25 10:53 | 51.25967 | 20.20596 | 20627 ft | 385 kts | 193° |
| 2026-04-25 10:54 | 51.23320 | 20.20062 | 20213 ft | 382 kts | 193° |
| 2026-04-25 10:54 | 51.21577 | 20.19706 | 19965 ft | 380 kts | 193° |
| 2026-04-25 10:54 | 51.18095 | 20.18995 | 19460 ft | 375 kts | 193° |
| 2026-04-25 10:54 | 51.15513 | 20.18466 | 19076 ft | 373 kts | 193° |
| 2026-04-25 10:55 | 51.12947 | 20.17942 | 18694 ft | 371 kts | 193° |
| 2026-04-25 10:55 | 51.10397 | 20.17422 | 18310 ft | 369 kts | 193° |
| 2026-04-25 10:55 | 51.07860 | 20.16904 | 17886 ft | 367 kts | 193° |
| 2026-04-25 10:55 | 51.05332 | 20.16389 | 17378 ft | 367 kts | 193° |
| 2026-04-25 10:56 | 51.02795 | 20.15873 | 16894 ft | 367 kts | 193° |
| 2026-04-25 10:56 | 51.00282 | 20.15362 | 16485 ft | 364 kts | 193° |
| 2026-04-25 10:56 | 50.97785 | 20.14856 | 16124 ft | 360 kts | 192° |
| 2026-04-25 10:56 | 50.95307 | 20.14353 | 15756 ft | 358 kts | 192° |
| 2026-04-25 10:57 | 50.92849 | 20.13855 | 15387 ft | 355 kts | 193° |
| 2026-04-25 10:57 | 50.90405 | 20.13360 | 15006 ft | 353 kts | 192° |
| 2026-04-25 10:57 | 50.87981 | 20.12870 | 14661 ft | 351 kts | 193° |
| 2026-04-25 10:57 | 50.85567 | 20.12383 | 14300 ft | 349 kts | 192° |
| 2026-04-25 10:58 | 50.83164 | 20.11898 | 13936 ft | 347 kts | 192° |
| 2026-04-25 10:58 | 50.80772 | 20.11416 | 13540 ft | 346 kts | 192° |
| 2026-04-25 10:58 | 50.78385 | 20.10936 | 13142 ft | 344 kts | 192° |
| 2026-04-25 10:58 | 50.76030 | 20.10463 | 12736 ft | 342 kts | 192° |
| 2026-04-25 10:59 | 50.73682 | 20.09991 | 12379 ft | 339 kts | 192° |
| 2026-04-25 10:59 | 50.71355 | 20.09524 | 12047 ft | 336 kts | 192° |
| 2026-04-25 10:59 | 50.69046 | 20.09061 | 11685 ft | 334 kts | 192° |
| 2026-04-25 10:59 | 50.66750 | 20.08601 | 11323 ft | 332 kts | 192° |
| 2026-04-25 11:00 | 50.64466 | 20.08144 | 10960 ft | 330 kts | 192° |
| 2026-04-25 11:00 | 50.62190 | 20.07689 | 10634 ft | 328 kts | 191° |
| 2026-04-25 11:00 | 50.59956 | 20.07243 | 10452 ft | 320 kts | 192° |
| 2026-04-25 11:00 | 50.57780 | 20.06808 | 10326 ft | 311 kts | 192° |
| 2026-04-25 11:01 | 50.55667 | 20.06388 | 10188 ft | 302 kts | 192° |
| 2026-04-25 11:01 | 50.53607 | 20.05977 | 10019 ft | 295 kts | 192° |
| 2026-04-25 11:01 | 50.51589 | 20.05575 | 9732 ft | 293 kts | 192° |
| 2026-04-25 11:01 | 50.49567 | 20.05172 | 9382 ft | 292 kts | 192° |
| 2026-04-25 11:02 | 50.47554 | 20.04773 | 9061 ft | 291 kts | 192° |
| 2026-04-25 11:02 | 50.45549 | 20.04431 | 8788 ft | 289 kts | 185° |
| 2026-04-25 11:02 | 50.43569 | 20.04641 | 8571 ft | 283 kts | 178° |
| 2026-04-25 11:02 | 50.41658 | 20.04937 | 8330 ft | 276 kts | 179° |
| 2026-04-25 11:03 | 50.39740 | 20.05221 | 8089 ft | 270 kts | 179° |
| 2026-04-25 11:03 | 50.37912 | 20.05485 | 7846 ft | 265 kts | 179° |
| 2026-04-25 11:03 | 50.36071 | 20.05748 | 7589 ft | 260 kts | 179° |
| 2026-04-25 11:03 | 50.34312 | 20.05995 | 7381 ft | 255 kts | 180° |
| 2026-04-25 11:04 | 50.32559 | 20.06243 | 7145 ft | 251 kts | 179° |
| 2026-04-25 11:04 | 50.30838 | 20.06485 | 6919 ft | 246 kts | 180° |
| 2026-04-25 11:04 | 50.29146 | 20.06722 | 6681 ft | 242 kts | 179° |
| 2026-04-25 11:04 | 50.28018 | 20.06880 | 6528 ft | 240 kts | 180° |
| 2026-04-25 11:05 | 50.25853 | 20.07184 | 6246 ft | 233 kts | 180° |
| 2026-04-25 11:05 | 50.24254 | 20.07408 | 6039 ft | 228 kts | 180° |
| 2026-04-25 11:05 | 50.22688 | 20.07626 | 5822 ft | 223 kts | 180° |
| 2026-04-25 11:05 | 50.21155 | 20.07840 | 5626 ft | 218 kts | 180° |
| 2026-04-25 11:06 | 50.19659 | 20.08049 | 5426 ft | 213 kts | 181° |
| 2026-04-25 11:06 | 50.18180 | 20.08255 | 5227 ft | 208 kts | 181° |
| 2026-04-25 11:06 | 50.16774 | 20.08453 | 5035 ft | 203 kts | 182° |
| 2026-04-25 11:06 | 50.15370 | 20.08649 | 4855 ft | 203 kts | 182° |
| 2026-04-25 11:07 | 50.13967 | 20.08794 | 4693 ft | 199 kts | 190° |
| 2026-04-25 11:07 | 50.12804 | 20.08158 | 4436 ft | 185 kts | 223° |
| 2026-04-25 11:07 | 50.12028 | 20.06667 | 4207 ft | 174 kts | 250° |
| 2026-04-25 11:07 | 50.11654 | 20.04908 | 3976 ft | 170 kts | 257° |
| 2026-04-25 11:08 | 50.11341 | 20.03145 | 3730 ft | 168 kts | 257° |
| 2026-04-25 11:08 | 50.11051 | 20.01386 | 3459 ft | 167 kts | 257° |
| 2026-04-25 11:08 | 50.10868 | 20.00228 | 3320 ft | 165 kts | 257° |
| 2026-04-25 11:08 | 50.10601 | 19.98489 | 3090 ft | 166 kts | 258° |
| 2026-04-25 11:09 | 50.10342 | 19.96738 | 2954 ft | 166 kts | 258° |
| 2026-04-25 11:09 | 50.10088 | 19.94990 | 2722 ft | 165 kts | 258° |
| 2026-04-25 11:09 | 50.09846 | 19.93303 | 2533 ft | 155 kts | 258° |
| 2026-04-25 11:09 | 50.09617 | 19.91696 | 2288 ft | 146 kts | 258° |
| 2026-04-25 11:10 | 50.09409 | 19.90256 | 2117 ft | 131 kts | 258° |
| 2026-04-25 11:10 | 50.09281 | 19.89326 | 1972 ft | 130 kts | 257° |
| 2026-04-25 11:10 | 50.09024 | 19.87478 | 1699 ft | 133 kts | 258° |
| 2026-04-25 11:10 | 50.08831 | 19.86083 | 1479 ft | 133 kts | 256° |
| 2026-04-25 11:11 | 50.08637 | 19.84688 | 1353 ft | 133 kts | 256° |
| 2026-04-25 11:11 | 50.08434 | 19.83277 | 1187 ft | 135 kts | 257° |
| 2026-04-25 11:11 | 50.08248 | 19.81831 | 1073 ft | 136 kts | 254° |
| 2026-04-25 11:11 | 50.08035 | 19.80368 | 905 ft | 138 kts | 256° |
| 2026-04-25 11:12 | 50.07840 | 19.78998 | 805 ft | 119 kts | 257° |
| 2026-04-25 11:12 | 50.07760 | 19.78389 | 804 ft | 21 kts | 258° |
| 2026-04-25 11:12 | 50.07721 | 19.78152 | 801 ft | 13 kts | 234° |
| 2026-04-25 11:12 | 50.07638 | 19.78093 | 802 ft | 15 kts | 183° |
| 2026-04-25 11:13 | 50.07535 | 19.78084 | 802 ft | 16 kts | 184° |
| 2026-04-25 11:13 | 50.07476 | 19.78112 | 802 ft | 1 kts | 117° |
| 2026-04-25 11:13 | 50.07474 | 19.78141 | 802 ft | 4 kts | 89° |
| 2026-04-25 11:13 | 50.07481 | 19.78209 | 802 ft | 9 kts | 75° |
| 2026-04-25 11:14 | 50.07501 | 19.78344 | 802 ft | 17 kts | 78° |
| 2026-04-25 11:14 | 50.07521 | 19.78500 | 802 ft | 10 kts | 78° |
| 2026-04-25 11:14 | 50.07527 | 19.78544 | 802 ft | 8 kts | 77° |
| 2026-04-25 11:14 | 50.07546 | 19.78678 | 802 ft | 18 kts | 77° |
| 2026-04-25 11:15 | 50.07581 | 19.78915 | 802 ft | 27 kts | 77° |
| 2026-04-25 11:15 | 50.07620 | 19.79229 | 802 ft | 22 kts | 79° |
| 2026-04-25 11:15 | 50.07648 | 19.79421 | 802 ft | 20 kts | 79° |
| 2026-04-25 11:15 | 50.07672 | 19.79589 | 802 ft | 17 kts | 76° |
| 2026-04-25 11:16 | 50.07556 | 19.79730 | 802 ft | 13 kts | 169° |
| 2026-04-25 11:16 | 50.07455 | 19.79762 | 802 ft | 16 kts | 167° |
| 2026-04-25 11:16 | 50.07374 | 19.79854 | 802 ft | 7 kts | 80° |
| 2026-04-25 11:17 | 50.07388 | 19.79946 | 802 ft | 10 kts | 77° |
| 2026-04-25 11:17 | 50.07398 | 19.80071 | 802 ft | 10 kts | 107° |
| 2026-04-25 11:17 | 50.07367 | 19.80101 | 802 ft | 1 kts | 178° |
| 2026-04-25 11:17 | 50.07347 | 19.80102 | 802 ft | 5 kts | 175° |
| 2026-04-25 11:18 | 50.07329 | 19.80107 | 802 ft | 0 kts | 169° |